Date,TemperatureHighF,TemperatureAvgF,TemperatureLowF,DewpointHighF,DewpointAvgF,DewpointLowF,HumidityHigh,HumidityAvg,HumidityLow,PressureMaxIn,PressureMinIn,WindSpeedMaxMPH,WindSpeedAvgMPH,GustSpeedMaxMPH,PrecipitationSumIn
2013-2-1,31,23,13,15,9,0,61,55,48,30.08,29.46,6,3,15,0.00
2013-2-2,26,17,7,10,4,-5,68,56,50,30.25,30.08,4,1,9,0.00
2013-2-3,27,22,15,15,11,7,73,63,58,30.08,29.75,3,1,8,0.00
2013-2-4,30,21,13,13,8,-2,77,57,49,29.93,29.69,7,2,15,0.00
2013-2-5,28,14,4,11,0,-10,65,54,48,30.11,29.90,3,1,7,0.00
2013-2-6,38,23,13,24,12,0,76,63,52,30.31,29.93,4,1,10,0.00
2013-2-7,26,13,5,9,-2,-9,54,51,48,30.58,30.28,3,1,8,0.00
2013-2-8,16,12,7,11,4,-7,92,72,52,30.58,29.93,6,3,13,0.00
2013-2-9,20,15,10,16,10,5,99,81,62,30.16,29.75,7,5,24,0.00
2013-2-10,43,19,1,21,5,-9,63,55,37,30.37,30.16,3,1,8,0.00
2013-2-11,32,20,7,30,15,-3,100,79,62,30.37,29.57,1,0,2,0.00
2013-2-12,48,34,24,37,28,23,100,82,54,29.75,29.52,5,1,13,0.00
2013-2-13,35,30,23,26,22,20,88,74,58,29.75,29.69,2,0,6,0.00
2013-2-14,46,32,23,28,22,17,81,66,48,29.96,29.66,4,1,7,0.00
2013-2-15,51,31,18,35,25,15,92,78,53,29.96,29.81,3,0,7,0.00
2013-2-16,40,33,26,35,27,12,100,78,57,29.90,29.75,4,1,43,0.00
2013-2-17,26,21,17,18,10,3,90,63,52,29.78,29.28,7,4,17,0.00
2013-2-18,35,20,10,17,4,-4,56,51,40,30.08,29.52,8,3,23,0.00
2013-2-19,44,29,10,40,16,-4,100,61,40,30.14,29.54,3,1,8,0.00
2013-2-20,40,32,24,38,25,14,100,76,55,29.66,29.40,6,2,14,0.00
2013-2-21,31,25,20,17,14,9,71,62,56,30.14,29.66,6,3,14,0.00
2013-2-22,45,30,20,28,19,14,83,66,50,30.40,30.14,4,1,9,0.00
2013-2-23,38,31,23,32,26,17,100,83,68,30.31,29.96,1,0,3,0.00
2013-2-24,33,30,28,33,30,28,100,100,98,29.96,29.75,1,0,3,0.00
2013-2-25,48,31,24,34,28,24,100,92,56,30.16,29.84,3,0,5,0.00
2013-2-26,48,35,28,35,29,25,100,81,55,30.31,30.16,3,0,5,0.00
2013-2-27,36,32,28,36,31,26,100,99,93,30.19,29.63,3,1,10,0.00
2013-2-28,41,34,30,39,34,30,100,98,88,29.63,29.49,3,1,6,0.00